Time;durP1;ratioP1;P1;durP2;ratioP2;P2;SDS_P1;SDS_P2;PMS_P1;PMS_P2;Temp;Humidity;BMP_temperature;BMP_pressure;BME280_temperature;BME280_humidity;BME280_pressure;Samples;Min_cycle;Max_cycle;Signal;HPM_P1;HPM_P2
2022/06/26 00:01:34;;;;;;;27.47;18.50;;;24.20;50.40;;;;;;5053053;28;20197;-47
2022/06/26 00:04:00;;;;;;;21.77;15.97;;;24.10;50.60;;;;;;5053752;28;20432;-48
2022/06/26 00:06:26;;;;;;;24.53;16.20;;;24.10;50.40;;;;;;5052788;28;20423;-46
2022/06/26 00:08:51;;;;;;;20.00;16.20;;;24.10;50.50;;;;;;5052176;28;20633;-45
2022/06/26 00:11:18;;;;;;;18.27;13.87;;;24.10;50.50;;;;;;5053139;28;20197;-45
2022/06/26 00:13:44;;;;;;;18.97;14.90;;;24.10;50.50;;;;;;5053397;28;20177;-47
2022/06/26 00:16:10;;;;;;;20.87;15.20;;;24.10;50.50;;;;;;5052999;28;20466;-46
2022/06/26 00:18:36;;;;;;;20.23;15.83;;;24.00;50.50;;;;;;5053878;28;20415;-49
2022/06/26 00:21:03;;;;;;;18.10;14.20;;;24.00;50.60;;;;;;5052977;28;20462;-47
2022/06/26 00:23:29;;;;;;;17.50;12.80;;;24.00;50.60;;;;;;5053007;28;20891;-52
2022/06/26 00:25:54;;;;;;;19.43;15.47;;;24.00;50.50;;;;;;5052680;28;20546;-45
2022/06/26 00:28:20;;;;;;;15.00;13.17;;;23.90;50.50;;;;;;5052680;28;20176;-45
2022/06/26 00:30:46;;;;;;;18.60;15.27;;;23.90;50.60;;;;;;5053461;28;20193;-46
2022/06/26 00:33:12;;;;;;;17.30;14.13;;;23.80;50.70;;;;;;5053407;28;20775;-47
2022/06/26 00:35:40;;;;;;;15.80;13.60;;;23.80;50.90;;;;;;5052852;28;20435;-46
2022/06/26 00:38:06;;;;;;;19.60;15.40;;;23.80;50.80;;;;;;5052900;28;20408;-46
2022/06/26 00:40:31;;;;;;;18.23;15.63;;;23.80;50.90;;;;;;5055698;28;20424;-46
2022/06/26 00:42:58;;;;;;;23.37;17.87;;;23.80;50.80;;;;;;5056822;28;20215;-45
2022/06/26 00:45:24;;;;;;;26.37;17.33;;;23.70;50.70;;;;;;5056995;28;20165;-46
2022/06/26 00:47:50;;;;;;;20.33;15.00;;;23.70;50.60;;;;;;5056871;28;20411;-48
2022/06/26 00:50:16;;;;;;;20.40;17.30;;;23.70;50.70;;;;;;5057171;28;20190;-47
2022/06/26 00:52:42;;;;;;;19.57;16.70;;;23.70;50.60;;;;;;5058186;28;20245;-48
2022/06/26 00:55:10;;;;;;;21.43;16.73;;;23.70;50.60;;;;;;5056286;28;20625;-48
2022/06/26 00:57:36;;;;;;;22.17;17.00;;;23.70;50.60;;;;;;5057009;28;20563;-45
2022/06/26 01:00:08;;;;;;;22.67;16.63;;;23.70;50.70;;;;;;5057333;28;20438;-46
2022/06/26 01:02:34;;;;;;;18.83;15.70;;;23.60;50.70;;;;;;5055982;28;20444;-47
2022/06/26 01:04:59;;;;;;;24.87;17.90;;;23.60;50.80;;;;;;5057700;28;20488;-48
2022/06/26 01:07:26;;;;;;;21.07;17.80;;;23.60;51.00;;;;;;5056284;28;20166;-45
2022/06/26 01:09:52;;;;;;;21.37;16.90;;;23.50;51.30;;;;;;5056675;28;20232;-46
2022/06/26 01:12:18;;;;;;;19.77;14.50;;;23.60;51.10;;;;;;5055476;28;20431;-46
2022/06/26 01:14:45;;;;;;;16.67;11.30;;;23.60;51.20;;;;;;5056793;28;20172;-47
2022/06/26 01:17:11;;;;;;;16.17;12.00;;;23.60;51.30;;;;;;5056176;28;20411;-45
2022/06/26 01:19:37;;;;;;;11.90;10.80;;;23.60;51.30;;;;;;5055142;28;20453;-47
2022/06/26 01:22:03;;;;;;;10.50;9.40;;;23.70;51.40;;;;;;5056210;28;20966;-46
2022/06/26 01:24:29;;;;;;;10.40;8.87;;;23.80;51.40;;;;;;5056863;28;20407;-46
2022/06/26 01:26:55;;;;;;;10.50;9.40;;;23.80;51.50;;;;;;5055897;28;21104;-46
2022/06/26 01:29:21;;;;;;;12.33;8.87;;;23.80;51.50;;;;;;5057630;28;20427;-48
2022/06/26 01:31:47;;;;;;;12.27;11.03;;;23.80;51.40;;;;;;5055550;28;20188;-45
2022/06/26 01:34:14;;;;;;;10.50;9.40;;;23.90;51.60;;;;;;5057174;28;20494;-46
2022/06/26 01:36:40;;;;;;;11.03;9.87;;;23.90;51.70;;;;;;5056909;28;20408;-49
2022/06/26 01:39:06;;;;;;;13.00;11.70;;;23.90;51.60;;;;;;5056600;28;20529;-47
2022/06/26 01:41:32;;;;;;;13.97;11.10;;;23.80;51.40;;;;;;5056308;28;20459;-46
2022/06/26 01:43:58;;;;;;;11.97;10.30;;;23.80;51.50;;;;;;5056398;28;20518;-46
2022/06/26 01:46:25;;;;;;;12.23;11.00;;;23.80;51.50;;;;;;5056866;28;20249;-46
2022/06/26 01:48:51;;;;;;;13.43;11.90;;;23.70;51.80;;;;;;5055230;28;20174;-47
2022/06/26 01:51:17;;;;;;;12.67;10.90;;;23.70;51.70;;;;;;5053796;28;20799;-48
2022/06/26 01:53:43;;;;;;;12.23;10.97;;;23.70;51.60;;;;;;5055441;28;20890;-48
2022/06/26 01:56:09;;;;;;;12.47;11.20;;;23.70;52.30;;;;;;5055367;28;20469;-45
2022/06/26 01:58:35;;;;;;;12.60;11.30;;;23.70;51.60;;;;;;5055228;28;20891;-46
2022/06/26 02:01:01;;;;;;;11.13;10.00;;;23.70;51.60;;;;;;5054628;28;20648;-46
2022/06/26 02:03:27;;;;;;;12.70;11.47;;;23.70;51.70;;;;;;5054833;28;20770;-45
2022/06/26 02:05:53;;;;;;;11.73;10.53;;;23.60;51.70;;;;;;5054232;28;20407;-47
2022/06/26 02:08:19;;;;;;;12.90;10.67;;;23.60;51.60;;;;;;5054718;28;20756;-46
2022/06/26 02:13:42;;;;;;;11.90;9.97;;;23.50;51.70;;;;;;5054602;28;20453;-48
2022/06/26 02:16:23;;;;;;;15.73;11.50;;;23.50;51.70;;;;;;5054280;28;20384;-46
2022/06/26 02:18:55;;;;;;;12.30;10.10;;;23.40;51.70;;;;;;5054538;28;20404;-47
2022/06/26 02:21:23;;;;;;;16.13;12.33;;;23.40;51.60;;;;;;5054234;28;20466;-48
2022/06/26 02:23:50;;;;;;;13.60;11.30;;;23.40;51.40;;;;;;5054185;28;20826;-46
2022/06/26 02:26:17;;;;;;;22.40;15.37;;;23.40;51.60;;;;;;5055146;28;20400;-47
2022/06/26 02:28:44;;;;;;;22.20;14.10;;;23.30;51.60;;;;;;5070629;22;20411;-47
2022/06/26 02:31:10;;;;;;;18.00;13.50;;;23.30;51.70;;;;;;5093484;28;20952;-45
2022/06/26 02:33:36;;;;;;;19.23;14.00;;;23.20;51.50;;;;;;5094335;28;20429;-47
2022/06/26 02:36:07;;;;;;;16.23;14.03;;;23.20;51.40;;;;;;5093879;28;20459;-47
2022/06/26 02:38:33;;;;;;;19.17;15.93;;;23.20;51.30;;;;;;5093940;28;20172;-46
2022/06/26 02:41:00;;;;;;;22.00;15.33;;;23.20;51.30;;;;;;5094072;28;20451;-45
2022/06/26 02:43:26;;;;;;;18.40;15.00;;;23.20;51.30;;;;;;5094264;28;20437;-46
2022/06/26 02:45:53;;;;;;;18.43;14.40;;;23.10;51.30;;;;;;5093647;28;20409;-47
2022/06/26 02:48:20;;;;;;;23.30;17.00;;;23.10;51.40;;;;;;5093902;28;20485;-47
2022/06/26 02:50:49;;;;;;;20.40;14.30;;;23.10;51.40;;;;;;5093664;28;20410;-46
2022/06/26 02:53:15;;;;;;;24.47;16.63;;;23.10;51.50;;;;;;5093897;28;20413;-45
2022/06/26 02:55:42;;;;;;;21.13;15.77;;;23.00;51.40;;;;;;5093421;28;20413;-46
2022/06/26 02:58:07;;;;;;;24.63;14.20;;;23.00;51.50;;;;;;5093679;28;20408;-46
2022/06/26 03:00:33;;;;;;;23.43;17.80;;;23.00;51.60;;;;;;5093631;28;20447;-45
2022/06/26 03:03:03;;;;;;;31.10;17.07;;;23.00;51.60;;;;;;5093458;28;20558;-47
2022/06/26 03:05:32;;;;;;;21.57;17.30;;;23.00;51.50;;;;;;5093543;28;20530;-44
2022/06/26 03:07:58;;;;;;;24.60;17.80;;;23.00;51.50;;;;;;5093492;28;20406;-44
2022/06/26 03:10:24;;;;;;;28.23;19.03;;;22.90;51.40;;;;;;5093282;28;20513;-45
2022/06/26 03:12:50;;;;;;;23.20;17.13;;;22.90;51.40;;;;;;5093425;28;20489;-46
2022/06/26 03:15:17;;;;;;;26.93;17.10;;;22.90;51.60;;;;;;5093518;28;20180;-43
2022/06/26 03:17:43;;;;;;;22.23;18.20;;;22.90;51.50;;;;;;5093254;28;20405;-45
2022/06/26 03:20:11;;;;;;;30.30;21.10;;;22.90;51.60;;;;;;5093173;28;20449;-45
2022/06/26 03:22:37;;;;;;;27.30;18.10;;;22.90;51.70;;;;;;5093173;28;20494;-45
2022/06/26 03:25:04;;;;;;;25.37;18.77;;;22.90;51.90;;;;;;5093036;28;20406;-46
2022/06/26 03:27:30;;;;;;;28.43;20.40;;;22.90;51.90;;;;;;5093192;28;20398;-45
2022/06/26 03:29:56;;;;;;;33.30;19.73;;;22.90;52.00;;;;;;5092836;28;20437;-44
2022/06/26 03:32:22;;;;;;;26.13;18.50;;;22.90;52.10;;;;;;5092974;28;20429;-46
2022/06/26 03:34:48;;;;;;;23.27;18.57;;;22.90;52.00;;;;;;5093147;28;20418;-46
2022/06/26 03:37:14;;;;;;;24.43;17.77;;;22.90;51.80;;;;;;5092866;28;20747;-45
2022/06/26 03:39:39;;;;;;;28.47;18.57;;;23.00;51.90;;;;;;5092922;28;20453;-45
2022/06/26 03:42:05;;;;;;;26.40;17.40;;;23.00;51.70;;;;;;5092838;28;20244;-45
2022/06/26 03:44:31;;;;;;;20.73;17.80;;;23.00;51.80;;;;;;5092888;28;20505;-44
2022/06/26 03:46:57;;;;;;;23.00;18.97;;;23.00;51.70;;;;;;5092853;28;20175;-45
2022/06/26 03:49:24;;;;;;;25.00;18.57;;;23.00;51.70;;;;;;5092742;28;20418;-45
2022/06/26 03:51:50;;;;;;;24.13;18.17;;;23.10;51.70;;;;;;5092731;28;20402;-45
2022/06/26 03:54:18;;;;;;;24.50;19.10;;;23.10;52.00;;;;;;5092861;28;20402;-46
2022/06/26 03:56:43;;;;;;;26.90;19.70;;;23.10;51.80;;;;;;5092562;28;20473;-45
2022/06/26 03:59:09;;;;;;;23.40;16.70;;;23.10;52.20;;;;;;5092748;28;20466;-44
2022/06/26 04:01:35;;;;;;;27.60;18.60;;;23.10;52.40;;;;;;5092598;28;20662;-44
2022/06/26 04:04:01;;;;;;;23.80;18.33;;;23.10;52.40;;;;;;5092457;28;20266;-45
2022/06/26 04:06:27;;;;;;;21.30;17.20;;;23.10;52.30;;;;;;5092296;28;20417;-45
2022/06/26 04:08:52;;;;;;;24.40;18.00;;;23.10;52.50;;;;;;5092257;28;20233;-46
2022/06/26 04:11:18;;;;;;;21.20;16.07;;;23.00;52.50;;;;;;5092517;28;20429;-45
2022/06/26 04:13:44;;;;;;;24.97;16.00;;;23.10;52.60;;;;;;5092196;28;20243;-45
2022/06/26 04:16:10;;;;;;;21.17;16.90;;;23.10;52.70;;;;;;5092170;28;20402;-45
2022/06/26 04:18:36;;;;;;;18.40;15.53;;;23.20;52.60;;;;;;5092285;28;20168;-45
2022/06/26 04:21:02;;;;;;;20.30;15.50;;;23.10;52.60;;;;;;5092232;28;20179;-45
2022/06/26 04:23:28;;;;;;;21.17;16.17;;;23.20;52.50;;;;;;5092241;28;20573;-46
2022/06/26 04:25:54;;;;;;;21.20;15.03;;;23.30;52.50;;;;;;5092056;28;20413;-46
2022/06/26 04:28:19;;;;;;;17.60;15.00;;;23.40;52.40;;;;;;5092190;28;20179;-45
2022/06/26 04:30:45;;;;;;;21.27;16.03;;;23.50;52.30;;;;;;5092087;28;20198;-44
2022/06/26 04:33:11;;;;;;;18.90;16.90;;;23.50;52.50;;;;;;5092267;28;20175;-46
2022/06/26 04:35:37;;;;;;;17.53;13.17;;;23.60;52.60;;;;;;5091950;28;20293;-46
2022/06/26 04:38:03;;;;;;;20.13;15.70;;;23.70;52.60;;;;;;5092065;28;20949;-45
2022/06/26 04:40:29;;;;;;;22.13;14.77;;;23.70;52.80;;;;;;5092168;28;20440;-45
2022/06/26 04:42:55;;;;;;;18.73;13.53;;;23.80;52.80;;;;;;5092364;28;20451;-45
2022/06/26 04:45:22;;;;;;;17.73;15.40;;;23.90;52.80;;;;;;5092298;28;20769;-46
2022/06/26 04:47:48;;;;;;;17.43;14.43;;;24.10;53.20;;;;;;5091888;28;20746;-45
2022/06/26 04:50:14;;;;;;;16.47;14.43;;;24.10;53.00;;;;;;5091936;28;20422;-47
2022/06/26 04:52:44;;;;;;;17.73;13.63;;;24.20;52.80;;;;;;5091990;28;20401;-45
2022/06/26 04:55:10;;;;;;;15.87;12.80;;;24.30;52.80;;;;;;5092137;28;20467;-46
2022/06/26 04:57:36;;;;;;;20.93;13.87;;;24.40;52.80;;;;;;5091771;28;20402;-46
2022/06/26 05:00:03;;;;;;;15.73;13.80;;;24.50;52.70;;;;;;5092134;28;20457;-46
2022/06/26 05:02:29;;;;;;;18.70;14.30;;;24.60;52.90;;;;;;5091758;28;20202;-46
2022/06/26 05:04:55;;;;;;;18.20;14.67;;;24.60;52.80;;;;;;5091750;28;20406;-44
2022/06/26 05:07:21;;;;;;;15.67;12.87;;;24.70;52.70;;;;;;5091743;28;20168;-45
2022/06/26 05:09:47;;;;;;;17.03;13.50;;;24.70;52.70;;;;;;5092017;28;20192;-45
2022/06/26 05:12:12;;;;;;;15.70;13.27;;;24.80;52.50;;;;;;5091880;28;20708;-45
2022/06/26 05:14:38;;;;;;;16.83;13.83;;;24.90;52.60;;;;;;5091830;28;20302;-46
2022/06/26 05:17:04;;;;;;;16.97;13.83;;;25.00;52.50;;;;;;5091568;28;20168;-46
2022/06/26 05:19:30;;;;;;;15.60;12.57;;;25.10;52.30;;;;;;5091703;28;20184;-45
2022/06/26 05:21:56;;;;;;;15.73;13.03;;;25.20;52.10;;;;;;5091850;28;20191;-45
2022/06/26 05:24:22;;;;;;;20.43;13.70;;;25.20;51.90;;;;;;5091912;28;20163;-44
2022/06/26 05:26:48;;;;;;;18.40;14.40;;;25.20;51.70;;;;;;5092766;28;20800;-45
2022/06/26 05:29:13;;;;;;;16.80;12.00;;;25.30;51.60;;;;;;5095376;28;20702;-45
2022/06/26 05:31:39;;;;;;;14.37;11.57;;;25.30;51.40;;;;;;5095529;28;20417;-44
2022/06/26 05:34:05;;;;;;;16.40;12.53;;;25.40;51.40;;;;;;5095248;28;20552;-46
2022/06/26 05:36:31;;;;;;;14.50;12.07;;;25.40;51.30;;;;;;5095104;28;20458;-46
2022/06/26 05:38:57;;;;;;;18.77;13.10;;;25.40;50.80;;;;;;5095381;28;20188;-45
2022/06/26 05:41:22;;;;;;;14.50;11.37;;;25.50;50.20;;;;;;5095157;28;20550;-45
2022/06/26 05:43:48;;;;;;;18.13;11.97;;;25.50;50.70;;;;;;5095137;28;20168;-45
2022/06/26 05:46:14;;;;;;;13.63;12.13;;;25.70;50.50;;;;;;5095195;28;20171;-46
2022/06/26 05:48:40;;;;;;;12.70;11.40;;;25.80;50.40;;;;;;5094896;28;20663;-45
2022/06/26 05:51:06;;;;;;;13.43;12.03;;;25.80;50.40;;;;;;5095149;28;20493;-45
2022/06/26 05:53:32;;;;;;;13.07;11.07;;;25.90;48.90;;;;;;5095227;28;20266;-45
2022/06/26 05:55:57;;;;;;;15.33;12.57;;;26.00;49.90;;;;;;5094846;28;20439;-45
2022/06/26 05:58:23;;;;;;;11.40;10.30;;;26.20;49.70;;;;;;5095113;28;20191;-45
2022/06/26 06:00:49;;;;;;;11.57;10.13;;;26.20;49.80;;;;;;5094876;28;20528;-46
2022/06/26 06:03:14;;;;;;;10.63;9.30;;;26.30;49.50;;;;;;5094569;28;20199;-45
2022/06/26 06:05:40;;;;;;;13.80;11.40;;;26.30;49.60;;;;;;5094540;28;20209;-44
2022/06/26 06:08:06;;;;;;;13.30;11.90;;;26.50;48.90;;;;;;5094747;28;20168;-45
2022/06/26 06:10:32;;;;;;;13.40;10.90;;;26.50;48.80;;;;;;5094700;28;20194;-44
2022/06/26 06:12:58;;;;;;;14.30;12.80;;;26.60;48.40;;;;;;5093360;28;20175;-44
2022/06/26 06:15:24;;;;;;;12.33;9.73;;;26.70;48.30;;;;;;5094479;28;20172;-47
2022/06/26 06:17:50;;;;;;;11.87;10.67;;;26.80;47.80;;;;;;5094371;28;20160;-45
2022/06/26 06:20:19;;;;;;;12.60;11.17;;;26.90;47.80;;;;;;5094474;28;20428;-46
2022/06/26 06:22:54;;;;;;;11.10;9.00;;;27.00;48.40;;;;;;5094377;28;20214;-45
2022/06/26 06:25:22;;;;;;;11.67;10.47;;;27.10;48.50;;;;;;5094345;28;20440;-45
2022/06/26 06:27:48;;;;;;;10.60;9.50;;;27.20;48.30;;;;;;5094094;28;20421;-46
2022/06/26 06:30:15;;;;;;;9.27;8.30;;;27.40;48.20;;;;;;5094014;28;20448;-47
2022/06/26 06:32:42;;;;;;;10.60;9.60;;;27.40;47.10;;;;;;5094336;28;20410;-46
2022/06/26 06:35:11;;;;;;;10.03;8.73;;;27.50;47.30;;;;;;5094430;28;20410;-45
2022/06/26 06:37:37;;;;;;;12.10;8.93;;;27.60;47.60;;;;;;5093518;28;20416;-45
2022/06/26 06:40:03;;;;;;;13.00;9.73;;;27.70;47.50;;;;;;5093984;28;20422;-45
2022/06/26 06:42:29;;;;;;;10.37;9.37;;;27.80;46.30;;;;;;5093997;28;20196;-46
2022/06/26 06:44:54;;;;;;;10.47;9.33;;;27.90;46.10;;;;;;5094246;28;20417;-45
2022/06/26 06:47:20;;;;;;;9.90;8.17;;;27.90;45.90;;;;;;5093916;28;20678;-46
2022/06/26 06:49:46;;;;;;;9.30;8.00;;;28.00;46.40;;;;;;5093822;28;20678;-46
2022/06/26 06:52:12;;;;;;;9.67;8.67;;;28.20;46.40;;;;;;5092650;28;20643;-45
2022/06/26 06:54:38;;;;;;;10.40;8.73;;;28.30;45.70;;;;;;5093861;28;20179;-44
2022/06/26 06:57:04;;;;;;;9.30;7.60;;;28.40;45.80;;;;;;5093524;28;20255;-46
2022/06/26 06:59:30;;;;;;;9.37;8.37;;;28.50;45.60;;;;;;5093531;28;20488;-45
2022/06/26 07:01:55;;;;;;;10.30;9.00;;;28.60;45.00;;;;;;5093700;28;20446;-46
2022/06/26 07:04:21;;;;;;;11.13;9.60;;;28.60;44.80;;;;;;5093538;28;20587;-45
2022/06/26 07:06:47;;;;;;;9.33;8.43;;;28.60;44.20;;;;;;5093366;28;20168;-47
2022/06/26 07:09:13;;;;;;;8.70;7.90;;;28.60;43.90;;;;;;5093400;28;20243;-46
2022/06/26 07:11:39;;;;;;;10.97;7.50;;;28.70;44.00;;;;;;5092108;28;20203;-47
2022/06/26 07:14:05;;;;;;;7.27;6.60;;;28.70;43.60;;;;;;5093349;28;20405;-45
2022/06/26 07:16:31;;;;;;;9.50;8.60;;;28.80;43.90;;;;;;5093338;28;20406;-47
2022/06/26 07:18:57;;;;;;;8.13;7.33;;;28.80;43.80;;;;;;5093178;28;20691;-45
2022/06/26 07:21:23;;;;;;;8.40;7.20;;;28.90;44.00;;;;;;5093190;28;20929;-46
2022/06/26 07:23:49;;;;;;;8.63;7.70;;;29.10;44.60;;;;;;5093503;28;20407;-46
2022/06/26 07:26:15;;;;;;;8.83;7.53;;;29.20;44.40;;;;;;5092976;28;20227;-46
2022/06/26 07:28:42;;;;;;;8.57;7.30;;;29.30;44.40;;;;;;5093111;28;20183;-46
2022/06/26 07:31:08;;;;;;;10.27;6.60;;;29.50;43.30;;;;;;5093092;28;20406;-45
2022/06/26 07:36:18;;;;;;;8.03;6.60;;;29.70;43.10;;;;;;5093045;28;20380;-46
2022/06/26 07:38:43;;;;;;;6.90;6.30;;;29.80;42.50;;;;;;5092864;28;20774;-46
2022/06/26 07:41:09;;;;;;;6.80;6.10;;;30.00;43.00;;;;;;5092764;28;20745;-47
2022/06/26 07:43:35;;;;;;;5.53;5.03;;;30.20;42.80;;;;;;5092921;28;20170;-45
2022/06/26 07:46:01;;;;;;;5.90;5.37;;;30.20;41.20;;;;;;5092567;28;20416;-45
2022/06/26 07:48:27;;;;;;;6.77;6.07;;;30.40;41.20;;;;;;5092563;28;20160;-45
2022/06/26 07:50:53;;;;;;;6.10;5.60;;;30.40;39.40;;;;;;5092256;28;20192;-45
2022/06/26 07:53:20;;;;;;;4.80;4.30;;;30.60;38.90;;;;;;5092688;28;20172;-46
2022/06/26 07:55:46;;;;;;;4.87;4.20;;;30.50;38.30;;;;;;5092345;28;20786;-47
2022/06/26 07:58:11;;;;;;;4.50;3.87;;;30.30;36.50;;;;;;5092955;28;20437;-44
2022/06/26 08:00:37;;;;;;;4.83;4.33;;;30.20;37.60;;;;;;5092592;28;20188;-45
2022/06/26 08:03:08;;;;;;;4.30;3.27;;;30.00;37.80;;;;;;5092841;28;20196;-45
2022/06/26 08:06:12;;;;;;;5.20;4.70;;;30.00;37.40;;;;;;5092527;28;20483;-45
2022/06/26 08:08:39;;;;;;;4.50;4.00;;;29.90;37.40;;;;;;5092464;28;20404;-46
2022/06/26 08:11:05;;;;;;;5.10;4.60;;;29.90;38.80;;;;;;5092749;28;20829;-45
2022/06/26 08:13:30;;;;;;;5.00;4.60;;;30.00;39.50;;;;;;5092424;28;20401;-45
2022/06/26 08:15:56;;;;;;;6.20;4.17;;;30.10;39.00;;;;;;5092482;28;20402;-46
2022/06/26 08:18:22;;;;;;;4.80;4.30;;;30.20;39.30;;;;;;5092385;28;20539;-46
2022/06/26 08:20:48;;;;;;;4.57;4.17;;;30.20;38.50;;;;;;5092267;28;20183;-47
2022/06/26 08:23:14;;;;;;;4.93;4.53;;;30.40;39.00;;;;;;5092436;28;20875;-46
2022/06/26 08:25:40;;;;;;;4.27;3.87;;;30.50;39.10;;;;;;5092019;28;20306;-46
2022/06/26 08:28:07;;;;;;;4.80;4.30;;;30.70;38.90;;;;;;5092556;28;20505;-47
2022/06/26 08:30:32;;;;;;;4.40;4.00;;;30.80;38.70;;;;;;5092571;28;20433;-47
2022/06/26 08:32:59;;;;;;;3.90;3.60;;;31.00;38.90;;;;;;5092755;28;20820;-46
2022/06/26 08:35:26;;;;;;;6.67;4.47;;;31.10;38.50;;;;;;5092294;28;20915;-48
2022/06/26 08:37:53;;;;;;;5.10;4.70;;;31.30;38.30;;;;;;5092051;28;20417;-46
2022/06/26 08:40:20;;;;;;;4.73;4.33;;;31.30;36.80;;;;;;5092079;28;20921;-47
2022/06/26 08:42:49;;;;;;;4.37;3.97;;;31.30;36.10;;;;;;5092021;28;20449;-45
2022/06/26 08:45:18;;;;;;;4.30;3.90;;;31.40;36.70;;;;;;5090803;28;20781;-46
2022/06/26 08:47:48;;;;;;;4.73;4.23;;;31.50;37.00;;;;;;5091771;28;20428;-44
2022/06/26 08:50:14;;;;;;;4.30;3.90;;;31.60;35.80;;;;;;5092124;28;20451;-45
2022/06/26 08:52:43;;;;;;;3.60;3.30;;;31.60;36.20;;;;;;5091934;28;20433;-46
2022/06/26 08:55:09;;;;;;;4.23;3.83;;;31.70;36.60;;;;;;5091903;28;20765;-46
2022/06/26 08:57:36;;;;;;;4.90;4.07;;;31.80;36.20;;;;;;5091812;28;20413;-47
2022/06/26 09:00:03;;;;;;;5.30;4.37;;;31.90;36.20;;;;;;5092165;28;20459;-46
2022/06/26 09:02:29;;;;;;;5.00;4.50;;;31.90;36.00;;;;;;5095686;28;20450;-47
2022/06/26 09:04:56;;;;;;;4.23;3.83;;;32.00;36.40;;;;;;5096118;28;20410;-45
2022/06/26 09:07:22;;;;;;;3.83;3.50;;;32.10;36.40;;;;;;5095820;28;20172;-46
2022/06/26 09:09:48;;;;;;;4.47;4.07;;;32.30;36.30;;;;;;5095953;28;20425;-46
2022/06/26 09:12:14;;;;;;;4.70;4.30;;;32.30;35.80;;;;;;5095708;28;20546;-46
2022/06/26 09:14:39;;;;;;;4.20;3.80;;;32.40;35.90;;;;;;5095678;28;20171;-46
2022/06/26 09:17:05;;;;;;;5.53;3.60;;;32.50;35.30;;;;;;5095320;28;20172;-46
2022/06/26 09:19:41;;;;;;;4.10;3.77;;;32.60;35.40;;;;;;5095682;28;20627;-45
2022/06/26 09:22:13;;;;;;;3.37;3.07;;;32.70;35.00;;;;;;5095509;28;20214;-45
2022/06/26 09:24:40;;;;;;;3.40;2.97;;;32.70;34.30;;;;;;5095788;28;20409;-46
2022/06/26 09:27:14;;;;;;;3.73;3.33;;;32.70;31.70;;;;;;5095173;28;20935;-47
2022/06/26 09:29:41;;;;;;;7.73;3.10;;;32.70;32.40;;;;;;5095170;28;20820;-46
2022/06/26 09:32:16;;;;;;;3.83;3.27;;;32.70;31.30;;;;;;5095260;28;20418;-46
2022/06/26 09:34:58;;;;;;;3.70;2.80;;;32.60;31.10;;;;;;5095296;28;20435;-46
2022/06/26 09:37:35;;;;;;;3.83;2.83;;;32.60;32.60;;;;;;5093973;28;20414;-45
2022/06/26 09:40:02;;;;;;;5.00;3.47;;;32.70;31.80;;;;;;5095075;28;20973;-46
2022/06/26 09:42:27;;;;;;;3.73;3.27;;;32.60;31.50;;;;;;5095196;28;21086;-47
2022/06/26 09:44:54;;;;;;;4.50;2.80;;;32.70;31.70;;;;;;5095361;28;20414;-46
2022/06/26 09:47:31;;;;;;;3.60;2.93;;;32.90;31.30;;;;;;5095154;28;20250;-46
2022/06/26 09:50:02;;;;;;;3.10;2.80;;;33.00;32.30;;;;;;5095088;28;20835;-46
2022/06/26 09:52:30;;;;;;;3.40;3.10;;;33.20;32.70;;;;;;5094918;28;20464;-46
2022/06/26 09:54:57;;;;;;;6.93;3.27;;;33.30;31.80;;;;;;5095087;28;20406;-47
2022/06/26 09:57:26;;;;;;;6.80;4.27;;;33.30;31.80;;;;;;5094782;28;20402;-46
2022/06/26 09:59:52;;;;;;;3.33;2.90;;;33.30;31.90;;;;;;5094709;28;20418;-46
2022/06/26 10:07:54;;;;;;;4.00;3.60;;;33.40;31.70;;;;;;5094875;28;20381;-46
2022/06/26 10:10:23;;;;;;;3.10;2.80;;;33.60;32.00;;;;;;5094694;28;20531;-46
2022/06/26 10:12:56;;;;;;;3.77;3.20;;;33.70;32.30;;;;;;5093878;28;20406;-46
2022/06/26 10:15:26;;;;;;;3.20;2.90;;;33.90;31.70;;;;;;5094442;28;20406;-46
2022/06/26 10:18:14;;;;;;;4.00;3.17;;;34.00;31.80;;;;;;5094600;28;20394;-46
2022/06/26 10:20:42;;;;;;;4.43;2.87;;;34.10;29.70;;;;;;5094372;28;20425;-47
2022/06/26 10:23:08;;;;;;;3.07;2.77;;;34.00;30.00;;;;;;5094369;28;20668;-46
2022/06/26 10:25:34;;;;;;;3.10;2.80;;;34.00;29.70;;;;;;5094449;28;20401;-46
2022/06/26 10:28:00;;;;;;;3.00;2.70;;;34.00;28.70;;;;;;5094209;28;20221;-46
2022/06/26 10:30:29;;;;;;;3.67;3.10;;;34.10;29.90;;;;;;5094156;28;20847;-46
2022/06/26 10:33:08;;;;;;;3.07;2.77;;;34.10;30.80;;;;;;5094496;28;20410;-46
2022/06/26 10:35:46;;;;;;;2.80;2.53;;;34.30;30.60;;;;;;5094291;28;20459;-45
2022/06/26 10:38:24;;;;;;;3.23;2.93;;;34.50;30.80;;;;;;5094013;28;20439;-46
2022/06/26 10:44:15;;;;;;;3.07;2.77;;;34.60;26.90;;;;;;5094382;28;20401;-47
2022/06/26 10:46:49;;;;;;;2.93;2.63;;;34.50;29.90;;;;;;5093294;28;20404;-47
2022/06/26 10:49:15;;;;;;;3.50;2.93;;;34.60;28.60;;;;;;5093831;28;20930;-47
2022/06/26 10:51:45;;;;;;;3.27;2.97;;;34.70;29.60;;;;;;5094139;28;20402;-46
2022/06/26 10:54:20;;;;;;;3.77;3.43;;;34.80;30.00;;;;;;5093822;28;20476;-47
2022/06/26 10:56:46;;;;;;;3.97;3.43;;;34.90;29.20;;;;;;5093651;28;20409;-46
2022/06/26 10:59:20;;;;;;;3.90;3.37;;;34.90;28.50;;;;;;5093439;28;20940;-46
2022/06/26 11:01:46;;;;;;;3.30;2.67;;;34.90;28.80;;;;;;5093820;28;20494;-45
2022/06/26 11:04:12;;;;;;;3.70;3.40;;;35.10;29.10;;;;;;5093590;28;20410;-46
2022/06/26 11:06:41;;;;;;;2.90;2.57;;;35.20;28.80;;;;;;5093440;28;20254;-47
2022/06/26 11:09:08;;;;;;;3.53;2.87;;;35.20;28.70;;;;;;5093390;28;20204;-46
2022/06/26 11:11:35;;;;;;;3.13;2.80;;;35.10;29.00;;;;;;5093290;28;20920;-46
2022/06/26 11:14:06;;;;;;;3.50;3.20;;;35.00;29.30;;;;;;5093303;28;20474;-46
2022/06/26 11:16:44;;;;;;;3.43;3.13;;;34.90;29.10;;;;;;5093169;28;20766;-45
2022/06/26 11:20:46;;;;;;;3.00;2.67;;;34.60;28.60;;;;;;5093258;28;20453;-46
2022/06/26 11:22:18;;;;;;;4.67;3.70;;;34.40;29.50;;;;;;5092998;28;20465;-44
2022/06/26 11:24:49;;;;;;;4.00;2.90;;;34.20;29.00;;;;;;5093381;28;20804;-45
2022/06/26 11:27:15;;;;;;;3.17;2.70;;;34.00;29.40;;;;;;5092774;28;20179;-45
2022/06/26 11:29:41;;;;;;;3.50;3.03;;;33.80;30.20;;;;;;5092990;28;20825;-46
2022/06/26 11:32:07;;;;;;;3.57;3.27;;;33.80;29.90;;;;;;5093129;28;20506;-45
2022/06/26 11:34:33;;;;;;;3.10;2.80;;;33.90;30.20;;;;;;5093218;28;20329;-45
2022/06/26 11:37:01;;;;;;;5.93;3.30;;;34.00;30.60;;;;;;5093018;28;20960;-45
2022/06/26 11:39:40;;;;;;;3.47;3.17;;;34.20;30.30;;;;;;5093156;28;20290;-46
2022/06/26 11:42:27;;;;;;;6.30;2.80;;;34.50;28.70;;;;;;5092773;28;20492;-46
2022/06/26 11:44:53;;;;;;;3.37;2.97;;;34.70;27.80;;;;;;5092647;28;20406;-45
2022/06/26 11:47:21;;;;;;;3.03;2.57;;;34.70;27.20;;;;;;5092831;28;20463;-47
2022/06/26 11:49:47;;;;;;;3.63;3.20;;;34.80;28.40;;;;;;5092464;28;20424;-46
2022/06/26 11:52:14;;;;;;;3.50;3.10;;;35.10;29.30;;;;;;5092759;28;20448;-47
2022/06/26 11:54:40;;;;;;;3.00;2.60;;;35.10;28.80;;;;;;5092709;28;20418;-46
2022/06/26 11:57:08;;;;;;;3.93;3.13;;;35.00;28.80;;;;;;5092388;28;20738;-47
2022/06/26 11:59:41;;;;;;;2.90;2.47;;;34.80;28.10;;;;;;5092627;28;20431;-46
2022/06/26 12:02:20;;;;;;;3.10;2.70;;;34.70;28.00;;;;;;5092686;28;20455;-46
2022/06/26 12:05:00;;;;;;;4.57;3.60;;;34.60;28.50;;;;;;5092527;28;20398;-48
2022/06/26 12:07:38;;;;;;;3.87;2.70;;;34.40;29.10;;;;;;5092629;28;20397;-45
2022/06/26 12:10:04;;;;;;;3.67;3.37;;;34.20;28.80;;;;;;5092305;28;20511;-46
2022/06/26 12:12:30;;;;;;;4.17;3.03;;;34.10;29.00;;;;;;5092593;28;20751;-46
2022/06/26 12:14:57;;;;;;;3.90;3.17;;;34.00;29.40;;;;;;5092612;28;20932;-46
2022/06/26 12:17:25;;;;;;;4.90;3.87;;;33.90;29.10;;;;;;5092435;28;20258;-45
2022/06/26 12:19:51;;;;;;;5.33;4.07;;;33.80;29.50;;;;;;5092227;28;20441;-46
2022/06/26 12:22:32;;;;;;;4.00;3.13;;;33.70;30.00;;;;;;5092449;28;20446;-46
2022/06/26 12:24:59;;;;;;;3.87;3.43;;;33.70;30.20;;;;;;5092549;28;20493;-45
2022/06/26 12:27:39;;;;;;;4.37;3.97;;;33.60;29.70;;;;;;5092258;28;20413;-46
2022/06/26 12:30:19;;;;;;;4.10;3.37;;;33.50;29.20;;;;;;5092007;28;20442;-45
2022/06/26 12:33:22;;;;;;;5.07;3.80;;;33.50;29.50;;;;;;5091987;28;20507;-45
2022/06/26 12:35:48;;;;;;;4.53;4.07;;;33.40;29.00;;;;;;5091090;28;20924;-46
2022/06/26 12:38:18;;;;;;;5.40;4.60;;;33.30;30.40;;;;;;5092236;28;20414;-46
2022/06/26 12:40:44;;;;;;;4.70;4.10;;;33.20;30.90;;;;;;5092367;28;20192;-45
2022/06/26 12:43:09;;;;;;;4.70;4.30;;;33.20;31.30;;;;;;5091958;28;20963;-45
2022/06/26 12:45:35;;;;;;;5.07;4.67;;;33.20;31.20;;;;;;5091939;28;20176;-46
2022/06/26 12:48:01;;;;;;;5.30;4.80;;;33.20;31.30;;;;;;5091922;28;20171;-47
2022/06/26 12:50:27;;;;;;;5.60;4.90;;;33.20;31.00;;;;;;5091936;28;20196;-46
2022/06/26 12:52:53;;;;;;;4.73;4.33;;;33.20;31.10;;;;;;5091033;28;20180;-46